createdAt,value
2019-01-27T00:01:20.471Z,141.97
2019-01-27T00:03:52.584Z,127.40
2019-01-27T00:06:25.865Z,155.27
2019-01-27T00:09:05.875Z,143.80
2019-01-27T00:11:39.505Z,141.00
2019-01-27T00:14:18.113Z,128.00
2019-01-27T00:16:50.194Z,117.37
2019-01-27T00:19:30.160Z,151.50
2019-01-27T00:22:10.513Z,143.90
2019-01-27T00:24:44.143Z,124.03
2019-01-27T00:27:16.215Z,101.97
2019-01-27T00:29:48.280Z,104.00
2019-01-27T00:32:20.244Z,103.13
2019-01-27T00:34:52.235Z,109.23
2019-01-27T00:37:24.341Z,100.40
2019-01-27T00:39:56.387Z,95.50
2019-01-27T00:42:28.445Z,107.43
2019-01-27T00:45:00.457Z,103.40
2019-01-27T00:47:32.707Z,101.07
2019-01-27T00:50:05.362Z,100.67
2019-01-27T00:52:37.448Z,101.67
2019-01-27T00:55:12.831Z,96.17
2019-01-27T00:57:45.031Z,93.43
2019-01-27T01:00:19.790Z,89.70
2019-01-27T01:02:51.955Z,90.33
2019-01-27T01:05:24.078Z,100.63
2019-01-27T01:07:56.196Z,86.87
2019-01-27T01:10:28.337Z,87.97
2019-01-27T01:13:00.360Z,93.50
2019-01-27T01:15:32.461Z,105.60
2019-01-27T01:18:04.991Z,84.03
2019-01-27T01:20:36.953Z,92.00
2019-01-27T01:23:09.509Z,83.93
2019-01-27T01:25:41.496Z,81.53
2019-01-27T01:28:13.610Z,89.20
2019-01-27T01:30:45.644Z,82.80
2019-01-27T01:33:17.751Z,83.07
2019-01-27T01:35:52.814Z,76.73
2019-01-27T01:38:24.989Z,80.03
2019-01-27T01:40:56.995Z,69.40
2019-01-27T01:43:29.028Z,81.43
2019-01-27T01:46:01.079Z,83.97
2019-01-27T01:48:33.159Z,77.03
2019-01-27T01:51:05.175Z,82.33
2019-01-27T01:53:37.301Z,70.03
2019-01-27T01:56:09.622Z,74.30
2019-01-27T01:58:41.648Z,73.13
2019-01-27T02:01:13.800Z,74.33
2019-01-27T02:03:46.164Z,73.03
2019-01-27T02:06:20.854Z,75.40
2019-01-27T02:08:52.997Z,72.03
2019-01-27T02:11:25.112Z,73.40
2019-01-27T02:13:57.288Z,74.83
2019-01-27T02:16:29.310Z,69.50
2019-01-27T02:19:01.398Z,76.80
2019-01-27T02:21:34.669Z,65.93
2019-01-27T02:24:07.166Z,68.20
2019-01-27T02:26:39.314Z,64.23
2019-01-27T02:29:12.895Z,74.50
2019-01-27T02:31:44.874Z,67.03
2019-01-27T02:34:16.896Z,69.63
2019-01-27T02:36:48.937Z,69.37
2019-01-27T02:39:21.275Z,68.00
2019-01-27T02:41:54.467Z,69.70
2019-01-27T02:44:26.476Z,63.30
2019-01-27T02:46:58.435Z,69.47
2019-01-27T02:49:30.646Z,74.57
2019-01-27T02:52:04.668Z,81.23
2019-01-27T02:54:39.150Z,74.63
2019-01-27T02:57:11.366Z,75.77
2019-01-27T02:59:43.965Z,68.77
2019-01-27T03:02:16.031Z,74.47
2019-01-27T03:04:48.069Z,72.50
2019-01-27T03:07:39.476Z,67.23
2019-01-27T03:10:13.715Z,73.30
2019-01-27T03:12:45.959Z,70.90
2019-01-27T03:15:18.874Z,72.03
2019-01-27T03:17:52.663Z,63.93
2019-01-27T03:20:24.680Z,66.33
2019-01-27T03:22:56.663Z,68.40
2019-01-27T03:25:28.730Z,71.23
2019-01-27T03:28:00.720Z,71.67
2019-01-27T03:30:32.896Z,68.57
2019-01-27T03:33:04.864Z,61.37
2019-01-27T03:35:38.506Z,64.20
2019-01-27T03:38:10.479Z,67.83
2019-01-27T03:40:42.555Z,69.30
2019-01-27T03:43:14.547Z,65.37
2019-01-27T03:45:46.658Z,59.47
2019-01-27T03:48:18.637Z,64.93
2019-01-27T03:50:50.671Z,61.27
2019-01-27T03:53:22.717Z,64.20
2019-01-27T03:55:54.712Z,67.40
2019-01-27T03:58:28.719Z,57.17
2019-01-27T04:01:00.760Z,65.83
2019-01-27T04:03:32.784Z,59.83
2019-01-27T04:06:04.816Z,54.73
2019-01-27T04:08:36.938Z,52.23
2019-01-27T04:11:09.011Z,60.17
2019-01-27T04:13:42.048Z,48.90
2019-01-27T04:16:14.032Z,57.67
2019-01-27T04:18:46.014Z,62.67
2019-01-27T04:21:17.994Z,51.87
2019-01-27T04:23:50.027Z,51.90
2019-01-27T04:26:22.049Z,53.80
2019-01-27T04:28:54.643Z,50.07
2019-01-27T04:31:27.721Z,50.10
2019-01-27T04:34:00.760Z,52.47
2019-01-27T04:36:32.764Z,48.97
2019-01-27T04:39:09.191Z,53.70
2019-01-27T04:41:41.240Z,46.90
2019-01-27T04:44:13.259Z,51.63
2019-01-27T04:46:45.220Z,44.37
2019-01-27T04:49:17.249Z,49.07
2019-01-27T04:51:50.275Z,46.70
2019-01-27T04:54:22.332Z,44.05
2019-01-27T04:56:54.295Z,50.30
2019-01-27T04:59:26.600Z,48.07
2019-01-27T05:01:58.602Z,45.33
2019-01-27T05:04:38.650Z,46.63
2019-01-27T05:07:10.722Z,48.53
2019-01-27T05:09:42.779Z,44.70
2019-01-27T05:12:14.954Z,48.30
2019-01-27T05:14:46.969Z,47.37
2019-01-27T05:17:18.993Z,46.83
2019-01-27T05:19:50.968Z,44.83
2019-01-27T05:22:23.107Z,45.20
2019-01-27T05:24:55.152Z,45.87
2019-01-27T05:27:27.165Z,45.43
2019-01-27T05:29:59.169Z,45.60
2019-01-27T05:32:31.200Z,40.77
2019-01-27T05:35:03.202Z,46.80
2019-01-27T05:37:35.287Z,46.23
2019-01-27T05:40:08.650Z,40.50
2019-01-27T05:42:40.780Z,47.00
2019-01-27T05:45:14.279Z,45.13
2019-01-27T05:47:46.278Z,43.50
2019-01-27T05:50:18.413Z,42.50
2019-01-27T05:52:51.771Z,41.45
2019-01-27T05:55:27.320Z,46.93
2019-01-27T05:57:59.347Z,42.17
2019-01-27T06:00:34.770Z,41.30
2019-01-27T06:03:06.744Z,40.33
2019-01-27T06:05:38.836Z,42.00
2019-01-27T06:08:12.908Z,48.17
2019-01-27T06:10:44.941Z,39.55
2019-01-27T06:13:17.033Z,43.95
2019-01-27T06:15:49.063Z,42.57
2019-01-27T06:18:21.229Z,43.68
2019-01-27T06:20:53.248Z,44.33
2019-01-27T06:23:25.273Z,43.07
2019-01-27T06:25:57.253Z,42.33
2019-01-27T06:28:29.253Z,47.97
2019-01-27T06:31:01.208Z,46.27
2019-01-27T06:33:40.931Z,47.90
2019-01-27T06:36:12.920Z,52.13
2019-01-27T06:38:44.949Z,51.60
2019-01-27T06:41:17.105Z,51.53
2019-01-27T06:43:49.158Z,50.17
2019-01-27T06:46:21.319Z,49.13
2019-01-27T06:48:53.762Z,59.03
2019-01-27T06:51:25.793Z,42.00
2019-01-27T06:53:57.873Z,48.93
2019-01-27T06:56:32.541Z,41.40
2019-01-27T06:59:12.366Z,45.37
2019-01-27T07:01:52.118Z,46.17
2019-01-27T07:04:36.339Z,43.77
2019-01-27T07:07:17.776Z,41.90
2019-01-27T07:10:04.540Z,45.17
2019-01-27T07:12:47.492Z,45.67
2019-01-27T07:15:41.327Z,46.37
2019-01-27T07:18:47.386Z,51.13
2019-01-27T07:21:33.611Z,46.35
2019-01-27T07:24:39.940Z,47.73
2019-01-27T07:27:48.151Z,44.83
2019-01-27T07:30:39.084Z,51.47
2019-01-27T07:33:28.683Z,43.83
2019-01-27T07:36:18.673Z,42.90
2019-01-27T07:39:18.719Z,41.37
2019-01-27T07:42:06.140Z,45.17
2019-01-27T07:44:56.000Z,42.90
2019-01-27T07:47:46.480Z,42.43
2019-01-27T07:50:36.712Z,43.67
2019-01-27T07:53:33.540Z,41.17
2019-01-27T07:56:23.810Z,37.67
2019-01-27T07:59:04.625Z,36.43
2019-01-27T08:02:11.016Z,36.17
2019-01-27T08:05:02.928Z,33.43
2019-01-27T08:07:54.253Z,35.40
2019-01-27T08:10:37.991Z,37.93
2019-01-27T08:13:41.169Z,33.80
2019-01-27T08:16:32.073Z,33.93
2019-01-27T08:19:32.003Z,31.30
2019-01-27T08:22:14.047Z,30.10
2019-01-27T08:25:07.943Z,30.63
2019-01-27T08:28:06.592Z,30.00
2019-01-27T08:30:56.168Z,34.13
2019-01-27T08:34:05.599Z,38.30
2019-01-27T08:36:56.824Z,31.17
2019-01-27T08:39:50.767Z,33.10
2019-01-27T08:42:44.893Z,40.50
2019-01-27T08:45:50.841Z,28.53
2019-01-27T08:48:22.970Z,27.40
2019-01-27T08:50:55.117Z,27.83
2019-01-27T08:53:27.022Z,27.25
2019-01-27T08:55:59.081Z,28.13
2019-01-27T08:58:31.195Z,27.80
2019-01-27T09:01:17.911Z,24.10
2019-01-27T09:03:59.292Z,25.90
2019-01-27T09:06:56.477Z,32.90
2019-01-27T09:09:50.849Z,92.03
2019-01-27T09:12:41.834Z,49.63
2019-01-27T09:15:51.019Z,40.90
2019-01-27T09:18:42.033Z,34.30
2019-01-27T09:21:36.044Z,29.53
2019-01-27T09:24:25.943Z,53.33
2019-01-27T09:27:11.992Z,51.40
2019-01-27T09:30:05.953Z,41.97
2019-01-27T09:33:08.565Z,42.23
2019-01-27T09:35:52.986Z,52.53
2019-01-27T09:38:45.051Z,53.47
2019-01-27T09:41:39.173Z,51.37
2019-01-27T09:44:39.301Z,45.37
2019-01-27T09:47:27.369Z,41.10
2019-01-27T09:50:30.826Z,36.97
2019-01-27T09:53:24.697Z,39.40
2019-01-27T09:56:16.956Z,42.80
2019-01-27T09:58:55.946Z,36.77
2019-01-27T10:01:53.360Z,43.07
2019-01-27T10:04:36.118Z,40.83
2019-01-27T10:07:25.622Z,38.60
2019-01-27T10:10:22.701Z,37.57
2019-01-27T10:13:21.133Z,36.33
2019-01-27T10:16:01.422Z,35.47
2019-01-27T10:18:55.225Z,31.45
2019-01-27T10:21:45.191Z,36.60
2019-01-27T10:24:41.458Z,44.83
2019-01-27T10:27:44.191Z,37.75
2019-01-27T10:30:40.189Z,34.53
2019-01-27T10:33:40.393Z,35.03
2019-01-27T10:36:40.735Z,37.87
2019-01-27T10:39:32.545Z,37.87
2019-01-27T10:42:22.718Z,33.77
2019-01-27T10:45:03.863Z,37.20
2019-01-27T10:47:55.209Z,41.45
2019-01-27T10:50:41.470Z,58.03
2019-01-27T10:53:50.733Z,40.07
2019-01-27T10:56:28.550Z,39.77
2019-01-27T10:59:25.672Z,37.70
2019-01-27T11:02:20.928Z,45.35
2019-01-27T11:05:19.118Z,42.95
2019-01-27T11:08:07.556Z,36.27
2019-01-27T11:10:57.357Z,34.35
2019-01-27T11:13:47.485Z,37.70
2019-01-27T11:16:43.278Z,31.35
2019-01-27T11:19:27.987Z,30.97
2019-01-27T11:22:15.226Z,30.15
2019-01-27T11:25:01.124Z,35.80
2019-01-27T11:28:08.713Z,31.57
2019-01-27T11:30:48.332Z,29.25
2019-01-27T11:33:45.623Z,31.05
2019-01-27T11:36:30.002Z,30.37
2019-01-27T11:39:40.194Z,41.53
2019-01-27T11:42:28.456Z,44.67
2019-01-27T11:45:07.173Z,47.50
2019-01-27T11:48:04.265Z,44.27
2019-01-27T11:50:46.921Z,48.30
2019-01-27T11:53:19.030Z,40.52
2019-01-27T11:55:51.037Z,44.10
2019-01-27T11:58:23.161Z,40.12
2019-01-27T12:00:58.900Z,39.43
2019-01-27T12:03:30.984Z,33.33
2019-01-27T12:06:05.585Z,44.40
2019-01-27T12:08:39.989Z,37.53
2019-01-27T12:11:12.450Z,36.65
2019-01-27T12:13:44.697Z,40.05
2019-01-27T12:16:17.945Z,33.40
2019-01-27T12:18:50.302Z,34.90
2019-01-27T12:21:22.609Z,34.03
2019-01-27T12:23:55.145Z,33.15
2019-01-27T12:26:27.118Z,31.90
2019-01-27T12:29:00.807Z,33.80
2019-01-27T12:31:32.859Z,32.35
2019-01-27T12:34:07.169Z,32.95
2019-01-27T12:36:39.549Z,32.03
2019-01-27T12:39:11.807Z,36.73
2019-01-27T12:41:44.819Z,33.48
2019-01-27T12:44:17.260Z,39.38
2019-01-27T12:46:49.308Z,50.48
2019-01-27T12:49:21.496Z,39.47
2019-01-27T12:51:54.194Z,35.20
2019-01-27T12:54:26.371Z,34.97
2019-01-27T12:56:58.506Z,37.35
2019-01-27T12:59:31.732Z,35.13
2019-01-27T13:02:05.487Z,36.17
2019-01-27T13:04:37.682Z,42.15
2019-01-27T13:07:10.177Z,37.57
2019-01-27T13:09:42.378Z,41.83
2019-01-27T13:12:14.509Z,45.10
2019-01-27T13:14:46.648Z,45.28
2019-01-27T13:17:19.000Z,41.87
2019-01-27T13:19:53.904Z,44.05
2019-01-27T13:22:25.269Z,36.27
2019-01-27T13:24:58.042Z,33.40
2019-01-27T13:27:40.284Z,39.80
2019-01-27T13:30:19.799Z,39.80
2019-01-27T13:32:52.318Z,40.93
2019-01-27T13:35:25.565Z,47.55
2019-01-27T13:37:57.675Z,43.17
2019-01-27T13:40:29.859Z,43.83
2019-01-27T13:43:07.539Z,38.85
2019-01-27T13:45:39.995Z,42.62
2019-01-27T13:48:12.133Z,47.70
2019-01-27T13:50:44.279Z,45.80
2019-01-27T13:53:16.419Z,64.42
2019-01-27T13:55:48.702Z,44.93
2019-01-27T13:58:20.724Z,52.73
2019-01-27T14:00:52.714Z,41.53
2019-01-27T14:03:28.139Z,37.15
2019-01-27T14:06:00.187Z,39.88
2019-01-27T14:08:32.321Z,41.13
2019-01-27T14:11:07.178Z,35.63
2019-01-27T14:13:41.965Z,39.83
2019-01-27T14:16:14.163Z,44.55
2019-01-27T14:18:46.756Z,38.50
2019-01-27T14:21:19.128Z,42.17
2019-01-27T14:23:51.703Z,36.58
2019-01-27T14:26:24.000Z,39.50
2019-01-27T14:28:56.140Z,41.85
2019-01-27T14:31:28.425Z,48.20
2019-01-27T14:34:00.651Z,43.48
2019-01-27T14:36:32.845Z,38.58
2019-01-27T14:39:08.040Z,40.28
2019-01-27T14:41:40.405Z,36.58
2019-01-27T14:44:12.701Z,39.00
2019-01-27T14:46:45.326Z,35.58
2019-01-27T14:49:18.340Z,34.08
2019-01-27T14:51:51.063Z,36.98
2019-01-27T14:54:23.458Z,45.43
2019-01-27T14:56:55.662Z,39.75
2019-01-27T14:59:27.836Z,39.18
2019-01-27T15:01:59.989Z,42.93
2019-01-27T15:04:56.845Z,41.70
2019-01-27T15:11:45.849Z,45.40
2019-01-27T15:14:18.266Z,44.33
2019-01-27T15:16:50.490Z,36.20
2019-01-27T15:19:22.669Z,33.75
2019-01-27T15:21:54.834Z,31.35
2019-01-27T15:25:17.626Z,28.73
2019-01-27T15:27:57.930Z,28.90
2019-01-27T15:30:31.698Z,25.90
2019-01-27T15:33:05.910Z,27.82
2019-01-27T15:35:41.778Z,26.80
2019-01-27T15:38:15.952Z,26.53
2019-01-27T15:40:53.955Z,28.87
2019-01-27T15:43:26.285Z,31.52
2019-01-27T15:45:58.422Z,27.82
2019-01-27T15:48:30.574Z,27.80
2019-01-27T15:51:02.675Z,26.52
2019-01-27T15:53:35.099Z,33.30
2019-01-27T15:56:07.373Z,28.65
2019-01-27T15:58:39.462Z,24.30
2019-01-27T16:01:11.987Z,27.45
2019-01-27T16:03:44.330Z,30.70
2019-01-27T16:06:16.413Z,27.17
2019-01-27T16:08:48.632Z,31.93
2019-01-27T16:11:21.180Z,40.78
2019-01-27T16:13:53.506Z,41.00
2019-01-27T16:16:25.672Z,44.45
2019-01-27T16:18:58.974Z,47.70
2019-01-27T16:21:31.328Z,55.80
2019-01-27T16:24:06.578Z,56.48
2019-01-27T16:26:38.813Z,57.93
2019-01-27T16:29:10.933Z,63.13
2019-01-27T16:32:01.274Z,50.95
2019-01-27T16:34:39.970Z,43.92
2019-01-27T16:37:26.170Z,39.92
2019-01-27T16:39:58.419Z,38.57
2019-01-27T16:42:33.046Z,38.78
2019-01-27T16:45:06.698Z,33.48
2019-01-27T16:47:39.192Z,40.52
2019-01-27T16:50:13.972Z,42.88
2019-01-27T16:52:48.318Z,44.03
2019-01-27T16:55:20.961Z,43.33
2019-01-27T16:57:53.091Z,44.10
2019-01-27T17:00:27.215Z,43.15
2019-01-27T17:02:59.461Z,40.63
2019-01-27T17:05:40.755Z,35.43
2019-01-27T17:08:13.101Z,33.67
2019-01-27T17:10:45.368Z,37.50
2019-01-27T17:13:17.436Z,41.37
2019-01-27T17:15:49.718Z,37.10
2019-01-27T17:18:21.983Z,36.00
2019-01-27T17:20:54.277Z,43.78
2019-01-27T17:23:26.652Z,38.60
2019-01-27T17:25:58.866Z,35.47
2019-01-27T17:28:30.995Z,38.20
2019-01-27T17:31:03.112Z,40.25
2019-01-27T17:33:35.297Z,42.00
2019-01-27T17:39:14.096Z,46.60
2019-01-27T17:41:46.363Z,43.50
2019-01-27T17:44:18.767Z,43.20
2019-01-27T17:46:51.071Z,38.30
2019-01-27T17:49:26.103Z,44.20
2019-01-27T17:52:01.463Z,43.70
2019-01-27T17:54:35.539Z,42.78
2019-01-27T17:57:20.378Z,42.83
2019-01-27T18:00:18.998Z,49.07
2019-01-27T18:03:10.243Z,42.20
2019-01-27T18:06:01.447Z,48.20
2019-01-27T18:09:32.262Z,46.33
2019-01-27T18:16:09.530Z,42.08
2019-01-27T18:18:42.258Z,40.40
2019-01-27T18:21:14.852Z,51.65
2019-01-27T18:23:48.744Z,60.70
2019-01-27T18:26:21.337Z,64.45
2019-01-27T18:28:55.417Z,51.58
2019-01-27T18:31:30.220Z,51.13
2019-01-27T18:34:18.854Z,47.40
2019-01-27T18:36:58.525Z,45.40
2019-01-27T18:40:00.796Z,40.33
2019-01-27T18:43:29.874Z,42.90
2019-01-27T18:48:10.486Z,39.80
2019-01-27T18:58:15.164Z,42.00
2019-01-27T19:01:32.078Z,41.05
2019-01-27T19:05:09.157Z,46.30
2019-01-27T19:11:49.439Z,41.85
2019-01-27T19:14:37.758Z,41.23
2019-01-27T19:17:42.450Z,45.23
2019-01-27T19:21:01.663Z,47.47
2019-01-27T19:24:03.388Z,48.93
2019-01-27T19:26:58.365Z,44.25
2019-01-27T19:29:58.661Z,39.48
2019-01-27T19:32:51.175Z,40.08
2019-01-27T19:40:47.190Z,35.13
2019-01-27T19:44:32.102Z,39.88
2019-01-27T19:47:38.183Z,41.92
2019-01-27T19:50:38.858Z,40.90
2019-01-27T19:53:28.699Z,43.78
2019-01-27T19:56:26.060Z,39.13
2019-01-27T20:02:40.439Z,38.40
2019-01-27T20:05:28.867Z,38.98
2019-01-27T20:08:16.826Z,40.25
2019-01-27T20:11:01.367Z,38.05
2019-01-27T20:17:40.234Z,41.45
2019-01-27T20:35:19.825Z,41.47
2019-01-27T20:38:08.318Z,42.80
2019-01-27T20:40:56.545Z,44.15
2019-01-27T20:43:53.716Z,44.23
2019-01-27T20:51:08.016Z,36.15
2019-01-27T20:57:46.740Z,38.57
2019-01-27T21:00:40.845Z,40.80
2019-01-27T21:03:32.128Z,39.23
2019-01-27T21:06:23.108Z,44.47
2019-01-27T21:13:29.117Z,42.23
2019-01-27T21:16:36.496Z,39.77
2019-01-27T21:19:45.478Z,43.00
2019-01-27T21:22:18.018Z,37.95
2019-01-27T21:24:50.350Z,43.95
2019-01-27T21:27:22.742Z,42.00
2019-01-27T21:29:56.155Z,42.50
2019-01-27T21:32:37.223Z,42.10
2019-01-27T21:35:10.991Z,40.83
2019-01-27T21:37:43.061Z,37.13
2019-01-27T21:40:17.991Z,42.83
2019-01-27T21:42:49.989Z,40.20
2019-01-27T21:45:26.401Z,46.53
2019-01-27T21:47:58.732Z,41.45
2019-01-27T21:50:36.089Z,37.10
2019-01-27T21:53:10.462Z,39.53
2019-01-27T21:55:42.649Z,41.73
2019-01-27T21:58:14.672Z,39.48
2019-01-27T22:00:46.779Z,44.13
2019-01-27T22:03:18.932Z,40.60
2019-01-27T22:05:51.661Z,46.65
2019-01-27T22:08:23.693Z,41.77
2019-01-27T22:10:55.900Z,39.98
2019-01-27T22:13:29.712Z,42.93
2019-01-27T22:16:02.544Z,39.08
2019-01-27T22:18:34.645Z,41.05
2019-01-27T22:21:06.874Z,40.60
2019-01-27T22:23:38.864Z,43.80
2019-01-27T22:26:11.131Z,41.08
2019-01-27T22:28:43.277Z,39.60
2019-01-27T22:31:15.327Z,42.60
2019-01-27T22:33:47.329Z,43.53
2019-01-27T22:36:19.490Z,41.10
2019-01-27T22:38:53.617Z,40.78
2019-01-27T22:41:25.609Z,42.10
2019-01-27T22:43:59.196Z,40.17
2019-01-27T22:46:31.181Z,41.90
2019-01-27T22:49:03.657Z,39.13
2019-01-27T22:51:35.704Z,43.02
2019-01-27T22:54:07.654Z,40.65
2019-01-27T22:56:39.735Z,42.70
2019-01-27T22:59:13.324Z,42.70
2019-01-27T23:01:45.430Z,48.83
2019-01-27T23:04:17.459Z,46.35
2019-01-27T23:06:49.542Z,53.92
2019-01-27T23:09:22.382Z,41.00
2019-01-27T23:11:54.403Z,43.05
2019-01-27T23:14:26.404Z,41.57
2019-01-27T23:16:58.481Z,38.98
2019-01-27T23:19:30.464Z,43.58
2019-01-27T23:22:02.536Z,46.33
2019-01-27T23:24:34.499Z,54.33
2019-01-27T23:27:08.713Z,43.48
2019-01-27T23:29:40.837Z,43.20
2019-01-27T23:32:12.898Z,42.33
2019-01-27T23:34:44.942Z,45.90
2019-01-27T23:37:16.991Z,46.77
2019-01-27T23:39:48.981Z,42.33
2019-01-27T23:42:21.003Z,47.13
2019-01-27T23:44:53.011Z,41.70
2019-01-27T23:47:24.976Z,42.97
2019-01-27T23:49:58.199Z,47.77
2019-01-27T23:52:30.527Z,40.63
2019-01-27T23:55:02.525Z,48.48
2019-01-27T23:57:34.628Z,45.95
